Alorton, Illinois
Current Conditions -  °F | °C
As of 6:53 PM on Monday 20 Oct 2014 (Local Time) from KCPS Reporting Station
Clear Clear  
Wind Chill: 64°   Ceiling: Unl
Heat Index: 64°   Visibility: 10mi
Dew Point: 44°   Wind: 9mph
Humidity: 48%   Direction: 340°NNW
Pressure: 29.98"   Gusts: NA
Location:  38.5841°N, 90.126°W
Report Text: KCPS 202353Z 34008KT 10SM CLR 18/07 A2998 RMK AO2 SLP152 T01780067 10239 20178 53016
Loading
Personal Weather Stations






























Interactive Weather Map New forecast layout! Learn more

10-Day Weather Forecast

Advertisements
Track Severe Weather on mobile